Time;durP1;ratioP1;P1;durP2;ratioP2;P2;SDS_P1;SDS_P2;PMS_P1;PMS_P2;Temp;Humidity;BMP_temperature;BMP_pressure;BME280_temperature;BME280_humidity;BME280_pressure;Samples;Min_cycle;Max_cycle;Signal;HPM_P1;HPM_P2
2022/03/17 00:00:17;;;;;;;55.90;35.53;;;;;;;10.68;56.62;99660.63;5222771;28;20432;-69
2022/03/17 00:03:07;;;;;;;53.50;34.67;;;;;;;11.24;55.07;99665.59;5223790;28;20079;-69
2022/03/17 00:05:57;;;;;;;51.42;34.00;;;;;;;11.12;54.97;99658.66;5213024;28;20076;-69
2022/03/17 00:08:47;;;;;;;52.17;34.58;;;;;;;10.91;55.88;99671.13;5222416;28;20434;-69
2022/03/17 00:11:38;;;;;;;60.08;37.22;;;;;;;10.98;55.67;99664.31;5225592;28;20127;-69
2022/03/17 00:14:28;;;;;;;58.15;35.85;;;;;;;11.07;55.82;99666.19;5215471;22;20049;-83
2022/03/17 00:17:18;;;;;;;55.92;36.03;;;;;;;10.96;55.46;99653.84;5200799;28;20053;-83
2022/03/17 00:20:10;;;;;;;55.22;35.88;;;;;;;11.00;55.36;99671.19;5189462;28;20136;-83
2022/03/17 00:23:00;;;;;;;57.15;37.10;;;;;;;10.97;55.34;99649.38;5186870;28;20050;-82
2022/03/17 00:25:50;;;;;;;55.22;36.38;;;;;;;10.65;56.12;99644.97;5182749;28;20515;-83
2022/03/17 00:28:40;;;;;;;56.92;36.90;;;;;;;10.67;55.89;99669.56;5189209;28;20057;-83
2022/03/17 00:31:30;;;;;;;53.78;36.05;;;;;;;10.68;56.01;99647.38;5191115;28;20046;-83
2022/03/17 00:34:21;;;;;;;58.60;35.83;;;;;;;10.91;55.74;99650.72;5183480;28;20122;-83
2022/03/17 00:37:11;;;;;;;59.67;37.08;;;;;;;10.65;56.03;99663.53;5189298;28;20057;-82
2022/03/17 00:40:02;;;;;;;57.75;36.25;;;;;;;10.79;55.79;99662.38;5200175;28;20084;-81
2022/03/17 00:42:55;;;;;;;55.67;35.72;;;;;;;10.82;55.44;99660.31;5195079;28;20049;-81
2022/03/17 00:45:47;;;;;;;57.50;36.70;;;;;;;10.65;55.53;99644.97;5195971;28;20610;-81
2022/03/17 00:48:37;;;;;;;58.42;36.90;;;;;;;10.83;54.87;99650.56;5195513;28;20060;-81
2022/03/17 00:51:28;;;;;;;60.22;37.33;;;;;;;10.79;55.54;99672.97;5182240;28;20052;-81
2022/03/17 00:54:18;;;;;;;59.17;36.80;;;;;;;10.96;54.43;99645.03;5184177;28;20060;-81
2022/03/17 00:57:09;;;;;;;56.55;37.13;;;;;;;10.93;54.76;99663.88;5176472;28;20226;-81
2022/03/17 00:59:59;;;;;;;56.33;36.38;;;;;;;10.96;55.13;99660.94;5181332;28;20046;-81
2022/03/17 01:02:51;;;;;;;55.90;37.10;;;;;;;10.75;54.29;99611.38;5181507;28;20057;-81
2022/03/17 01:05:42;;;;;;;57.58;36.50;;;;;;;11.20;52.98;99656.22;5172617;28;20176;-81
2022/03/17 01:08:32;;;;;;;60.67;37.80;;;;;;;11.12;54.83;99676.41;5186258;28;20100;-81
2022/03/17 01:11:22;;;;;;;59.33;37.42;;;;;;;11.18;54.21;99644.88;5184165;28;20059;-82
2022/03/17 01:14:13;;;;;;;62.00;38.25;;;;;;;10.98;54.63;99669.63;5187622;28;20065;-82
2022/03/17 01:17:04;;;;;;;57.95;37.17;;;;;;;11.02;54.41;99674.53;5186198;28;20506;-82
2022/03/17 01:19:54;;;;;;;61.47;37.60;;;;;;;11.39;53.13;99670.53;5172701;28;20467;-82
2022/03/17 01:22:45;;;;;;;59.20;36.63;;;;;;;11.02;54.26;99648.00;5173756;28;20065;-83
2022/03/17 01:25:35;;;;;;;57.92;37.92;;;;;;;11.12;54.10;99674.59;5201637;28;20293;-82
2022/03/17 01:28:25;;;;;;;59.97;37.63;;;;;;;10.74;55.31;99644.19;5187949;28;20088;-81
2022/03/17 01:31:16;;;;;;;57.78;36.17;;;;;;;10.57;55.82;99637.66;5196987;28;20053;-82
2022/03/17 01:34:06;;;;;;;57.55;36.97;;;;;;;10.65;56.19;99675.94;5195231;28;20082;-82
2022/03/17 01:36:56;;;;;;;59.92;36.63;;;;;;;10.45;57.39;99662.53;5194079;28;20060;-81
2022/03/17 01:39:47;;;;;;;53.72;35.88;;;;;;;10.18;58.01;99657.66;5169724;28;20096;-82
2022/03/17 01:42:37;;;;;;;57.03;36.55;;;;;;;10.30;58.86;99687.66;5202621;28;20152;-82
2022/03/17 01:45:27;;;;;;;57.50;36.92;;;;;;;10.12;58.25;99661.63;5196086;28;20124;-81
2022/03/17 01:48:19;;;;;;;58.33;36.65;;;;;;;10.02;58.73;99659.88;5173328;28;20081;-82
2022/03/17 01:51:10;;;;;;;54.97;35.70;;;;;;;9.90;58.82;99653.78;5173722;28;20050;-82
2022/03/17 01:54:00;;;;;;;59.85;36.33;;;;;;;9.95;59.05;99648.09;5193976;28;20428;-82
2022/03/17 01:56:52;;;;;;;56.63;35.40;;;;;;;10.05;58.95;99675.53;5173377;28;20053;-81
2022/03/17 01:59:43;;;;;;;59.78;37.30;;;;;;;9.83;58.45;99655.19;5192483;28;20124;-82
2022/03/17 02:02:33;;;;;;;56.95;35.85;;;;;;;9.80;59.66;99677.50;5192749;28;20065;-82
2022/03/17 02:05:24;;;;;;;59.97;37.70;;;;;;;9.63;59.57;99662.09;5192764;28;20088;-81
2022/03/17 02:08:14;;;;;;;59.58;36.75;;;;;;;9.63;59.34;99668.25;5172402;28;20084;-82
2022/03/17 02:14:14;;;;;;;55.80;35.90;;;;;;;9.63;59.63;99680.63;5198829;28;20061;-81
2022/03/17 02:17:05;;;;;;;61.22;36.63;;;;;;;9.44;60.42;99656.53;5199653;28;20072;-82
2022/03/17 02:19:58;;;;;;;58.75;36.63;;;;;;;9.52;59.94;99676.16;5195135;28;20085;-82
2022/03/17 02:22:50;;;;;;;60.95;37.20;;;;;;;9.38;60.38;99687.84;5193352;28;20520;-82
2022/03/17 02:25:40;;;;;;;56.10;35.58;;;;;;;9.30;60.07;99681.44;5187357;28;20061;-82
2022/03/17 02:28:32;;;;;;;62.10;37.90;;;;;;;9.29;60.29;99685.91;5168333;28;20097;-81
2022/03/17 02:31:23;;;;;;;58.88;36.63;;;;;;;9.35;60.22;99685.44;5188495;28;20041;-81
2022/03/17 02:34:16;;;;;;;59.20;36.15;;;;;;;9.29;60.50;99693.00;5189489;28;20713;-81
2022/03/17 02:37:07;;;;;;;59.63;36.78;;;;;;;9.38;60.63;99685.19;5190614;28;20073;-82
2022/03/17 02:40:04;;;;;;;60.83;36.55;;;;;;;9.60;59.89;99688.81;5190634;28;20187;-82
2022/03/17 02:42:55;;;;;;;60.15;37.13;;;;;;;9.58;60.49;99693.38;5169584;28;20053;-81
2022/03/17 02:45:47;;;;;;;60.28;38.05;;;;;;;9.76;59.67;99697.22;5204345;28;20519;-82
2022/03/17 02:48:37;;;;;;;59.25;37.67;;;;;;;9.85;58.62;99679.78;5182484;28;20054;-81
2022/03/17 02:51:27;;;;;;;65.45;38.05;;;;;;;9.91;58.98;99686.41;5189485;28;20058;-81
2022/03/17 02:54:18;;;;;;;63.28;39.25;;;;;;;9.91;58.67;99681.09;5191128;28;20500;-81
2022/03/17 02:57:08;;;;;;;61.70;37.67;;;;;;;9.72;59.01;99679.91;5176649;28;20084;-81
2022/03/17 02:59:58;;;;;;;67.47;39.22;;;;;;;9.67;58.84;99655.59;5189708;28;20116;-82
2022/03/17 03:02:48;;;;;;;65.05;36.95;;;;;;;9.70;58.71;99673.91;5172344;28;20056;-82
2022/03/17 03:05:41;;;;;;;62.15;37.83;;;;;;;9.81;58.09;99657.16;5185856;28;20065;-81
2022/03/17 03:08:31;;;;;;;59.42;36.85;;;;;;;9.99;57.81;99657.47;5186126;28;20057;-80
2022/03/17 03:11:22;;;;;;;61.85;37.45;;;;;;;9.79;57.59;99648.47;5172385;28;20072;-81
2022/03/17 03:14:12;;;;;;;63.75;36.97;;;;;;;9.57;58.93;99633.44;5191945;28;20159;-81
2022/03/17 03:17:03;;;;;;;60.22;35.53;;;;;;;9.83;58.02;99650.78;5187842;28;20060;-81
2022/03/17 03:19:53;;;;;;;60.40;36.45;;;;;;;9.92;57.71;99665.06;5156380;28;20050;-81
2022/03/17 03:22:43;;;;;;;64.05;38.42;;;;;;;10.01;57.57;99669.63;5173147;28;20064;-81
2022/03/17 03:25:33;;;;;;;62.97;37.10;;;;;;;10.14;57.70;99697.78;5176523;28;20463;-81
2022/03/17 03:28:24;;;;;;;57.92;36.47;;;;;;;10.16;57.51;99699.31;5179253;28;20115;-81
2022/03/17 03:31:14;;;;;;;59.33;36.92;;;;;;;10.32;56.97;99701.63;5189220;28;20133;-81
2022/03/17 03:34:04;;;;;;;64.00;35.63;;;;;;;10.16;57.45;99691.38;5172782;28;20079;-81
2022/03/17 03:40:03;;;;;;;57.30;34.70;;;;;;;10.41;55.67;99710.63;5186447;28;20184;-81
2022/03/17 03:42:54;;;;;;;59.85;35.38;;;;;;;10.11;57.26;99701.53;5177179;28;20068;-81
2022/03/17 03:45:44;;;;;;;62.67;37.75;;;;;;;10.18;56.54;99708.00;5192812;28;20069;-81
2022/03/17 03:48:35;;;;;;;62.65;35.03;;;;;;;10.10;56.49;99697.19;5180460;28;20060;-81
2022/03/17 03:51:25;;;;;;;62.40;36.83;;;;;;;10.30;56.68;99708.88;5187250;28;20127;-81
2022/03/17 03:54:16;;;;;;;59.13;35.28;;;;;;;10.27;56.33;99706.47;5160744;28;20415;-82
2022/03/17 03:57:06;;;;;;;61.08;37.20;;;;;;;10.33;55.97;99719.19;5168379;28;20058;-82
2022/03/17 03:59:56;;;;;;;63.20;36.95;;;;;;;10.29;56.05;99712.47;5163753;28;20046;-81
2022/03/17 04:02:47;;;;;;;58.72;36.17;;;;;;;10.33;55.74;99709.47;5173996;28;20476;-82
2022/03/17 04:05:37;;;;;;;59.13;36.17;;;;;;;10.29;56.45;99718.59;5180210;28;20056;-82
2022/03/17 04:08:27;;;;;;;57.22;35.45;;;;;;;10.21;55.98;99717.53;5179481;28;20104;-83
2022/03/17 04:11:17;;;;;;;58.78;35.83;;;;;;;10.14;56.33;99706.59;5185095;28;20056;-82
2022/03/17 04:14:12;;;;;;;58.55;37.08;;;;;;;10.06;55.31;99693.94;5169868;28;20052;-83
2022/03/17 04:17:02;;;;;;;65.85;38.10;;;;;;;10.45;55.49;99730.63;5193361;28;20488;-83
2022/03/17 04:19:53;;;;;;;63.58;37.00;;;;;;;10.32;55.66;99744.88;5189995;28;20045;-82
2022/03/17 04:22:44;;;;;;;62.95;36.28;;;;;;;10.12;55.61;99742.94;5175901;28;20085;-83
2022/03/17 04:25:34;;;;;;;63.35;36.45;;;;;;;10.02;55.88;99712.84;5188960;28;20056;-82
2022/03/17 04:28:23;;;;;;;61.08;36.08;;;;;;;10.11;55.66;99744.75;5188998;28;20108;-81
2022/03/17 04:31:14;;;;;;;58.50;35.90;;;;;;;10.02;55.97;99744.66;5185448;28;20053;-82
2022/03/17 04:34:05;;;;;;;59.67;35.55;;;;;;;10.12;55.67;99761.50;5186095;28;20066;-81
2022/03/17 04:36:55;;;;;;;59.03;36.03;;;;;;;10.32;55.08;99760.78;5188225;28;20050;-82
2022/03/17 04:39:45;;;;;;;58.80;36.58;;;;;;;10.06;55.45;99740.78;5183275;28;20050;-82
2022/03/17 04:42:36;;;;;;;60.67;36.10;;;;;;;9.85;55.71;99740.69;5173136;28;20056;-83
2022/03/17 04:45:26;;;;;;;57.85;36.17;;;;;;;9.91;56.62;99768.50;5187385;28;20570;-82
2022/03/17 04:48:16;;;;;;;60.05;36.75;;;;;;;9.93;55.88;99718.88;5190270;28;20053;-81
2022/03/17 04:51:07;;;;;;;63.85;36.80;;;;;;;10.15;55.59;99747.16;5196599;28;20050;-82
2022/03/17 04:53:57;;;;;;;56.67;35.97;;;;;;;10.11;55.54;99723.56;5196466;28;20064;-82
2022/03/17 04:56:47;;;;;;;60.35;37.15;;;;;;;10.27;56.38;99776.22;5183125;28;20611;-83
2022/03/17 04:59:38;;;;;;;57.60;35.80;;;;;;;10.12;56.27;99765.00;5195847;28;20046;-82
2022/03/17 05:02:28;;;;;;;61.58;36.92;;;;;;;10.07;56.47;99779.59;5163115;28;20057;-81
2022/03/17 05:05:19;;;;;;;63.00;37.55;;;;;;;10.20;55.75;99774.13;5188584;28;20050;-81
2022/03/17 05:08:09;;;;;;;58.22;36.28;;;;;;;10.05;56.47;99773.56;5172433;28;20053;-82
2022/03/17 05:11:00;;;;;;;60.92;37.40;;;;;;;9.95;56.91;99754.88;5183207;28;20048;-81
2022/03/17 05:13:51;;;;;;;58.00;37.15;;;;;;;10.42;55.72;99781.25;5178574;28;20053;-83
2022/03/17 05:16:44;;;;;;;58.55;35.80;;;;;;;10.02;56.42;99784.38;5187287;28;20038;-81
2022/03/17 05:19:35;;;;;;;58.85;37.15;;;;;;;9.59;57.71;99785.09;5174587;28;20081;-81
2022/03/17 05:22:26;;;;;;;64.47;37.10;;;;;;;9.82;57.14;99788.59;5188622;28;20083;-81
2022/03/17 05:25:16;;;;;;;61.40;37.20;;;;;;;9.51;57.24;99768.97;5187240;28;20108;-80
2022/03/17 05:28:10;;;;;;;61.63;38.28;;;;;;;9.89;57.02;99800.41;5172406;28;20057;-80
2022/03/17 05:31:02;;;;;;;61.85;37.15;;;;;;;10.17;55.75;99799.09;5188066;28;20104;-81
2022/03/17 05:33:52;;;;;;;64.38;38.05;;;;;;;9.91;56.61;99792.34;5196083;28;20133;-81
2022/03/17 05:36:42;;;;;;;62.33;37.55;;;;;;;9.89;56.98;99793.28;5187209;28;20147;-81
2022/03/17 05:39:32;;;;;;;61.88;37.63;;;;;;;9.68;56.51;99780.91;5184400;28;20078;-82
2022/03/17 05:42:22;;;;;;;63.13;37.28;;;;;;;9.83;56.68;99801.75;5184513;28;20056;-81
2022/03/17 05:45:15;;;;;;;66.53;37.97;;;;;;;9.81;56.90;99794.88;5178923;28;20790;-81
2022/03/17 05:48:06;;;;;;;64.55;39.05;;;;;;;9.76;57.39;99797.84;5174044;28;20060;-82
2022/03/17 05:50:56;;;;;;;59.72;35.85;;;;;;;9.78;56.56;99814.50;5180266;28;20052;-80
2022/03/17 05:53:46;;;;;;;61.20;36.13;;;;;;;10.22;54.86;99820.75;5184212;28;20127;-81
2022/03/17 05:56:36;;;;;;;62.72;36.70;;;;;;;9.98;55.90;99814.75;5181091;28;20053;-81
2022/03/17 05:59:27;;;;;;;60.05;36.55;;;;;;;10.20;55.42;99827.13;5177803;28;20055;-83
2022/03/17 06:02:17;;;;;;;61.75;37.40;;;;;;;10.03;55.58;99817.88;5183550;28;20116;-82
2022/03/17 06:05:07;;;;;;;61.22;35.92;;;;;;;10.38;54.56;99819.59;5185707;28;20538;-82
2022/03/17 06:08:01;;;;;;;64.38;37.25;;;;;;;10.40;53.91;99837.06;5182116;28;20052;-82
2022/03/17 06:10:51;;;;;;;58.08;35.53;;;;;;;9.78;55.39;99811.00;5180823;28;20068;-82
2022/03/17 06:13:43;;;;;;;60.35;36.28;;;;;;;10.04;55.74;99825.72;5170415;28;20103;-82
2022/03/17 06:16:34;;;;;;;59.55;35.42;;;;;;;9.98;55.61;99826.19;5183367;28;20061;-82
2022/03/17 06:19:24;;;;;;;56.15;34.40;;;;;;;10.14;55.14;99827.63;5186966;28;20123;-82
2022/03/17 06:22:14;;;;;;;60.30;36.90;;;;;;;9.95;55.75;99817.63;5176729;28;20101;-82
2022/03/17 06:25:06;;;;;;;59.85;37.67;;;;;;;9.78;56.54;99785.34;5183982;28;20045;-83
2022/03/17 06:27:57;;;;;;;63.63;37.85;;;;;;;9.84;57.18;99819.31;5169153;28;20123;-83
2022/03/17 06:30:47;;;;;;;62.72;38.13;;;;;;;10.08;57.02;99836.91;5192661;28;20048;-81
2022/03/17 06:33:37;;;;;;;57.55;36.75;;;;;;;10.10;55.98;99842.94;5189587;28;20046;-83
2022/03/17 06:36:28;;;;;;;65.22;38.58;;;;;;;10.18;56.38;99823.78;5186751;28;20073;-83
2022/03/17 06:39:18;;;;;;;65.05;37.55;;;;;;;10.24;55.63;99839.19;5186415;28;20057;-83
2022/03/17 06:42:08;;;;;;;72.15;36.50;;;;;;;10.26;55.89;99851.38;5196456;28;20093;-81
2022/03/17 06:44:58;;;;;;;59.92;36.50;;;;;;;10.25;55.30;99862.91;5187915;28;20445;-83
2022/03/17 06:47:49;;;;;;;68.28;38.70;;;;;;;10.21;56.89;99865.94;5174284;28;20065;-82
2022/03/17 06:50:39;;;;;;;64.32;39.22;;;;;;;10.35;55.53;99855.97;5187973;28;20057;-81
2022/03/17 06:53:29;;;;;;;64.18;37.75;;;;;;;10.24;55.91;99857.75;5177083;28;20104;-82
2022/03/17 06:56:20;;;;;;;69.25;38.38;;;;;;;10.24;56.22;99860.41;5187899;28;20053;-82
2022/03/17 06:59:10;;;;;;;61.85;37.20;;;;;;;10.23;56.19;99866.66;5187779;28;20420;-83
2022/03/17 07:02:00;;;;;;;62.80;37.80;;;;;;;10.38;57.15;99872.59;5172201;28;20077;-82
2022/03/17 07:04:51;;;;;;;67.53;40.00;;;;;;;10.42;57.03;99855.47;5180864;28;20050;-83
2022/03/17 07:07:42;;;;;;;70.78;40.25;;;;;;;10.39;57.35;99877.75;5182269;28;20431;-82
2022/03/17 07:10:33;;;;;;;66.70;39.78;;;;;;;10.36;59.08;99872.72;5187807;28;20247;-83
2022/03/17 07:13:23;;;;;;;78.10;40.47;;;;;;;10.49;57.91;99893.78;5185632;28;20045;-82
2022/03/17 07:16:14;;;;;;;57.75;35.72;;;;;;;10.78;54.36;99896.78;5184488;28;20053;-82
2022/03/17 07:19:04;;;;;;;65.55;37.13;;;;;;;10.59;55.28;99908.00;5182227;28;20061;-83
2022/03/17 07:21:54;;;;;;;57.47;36.30;;;;;;;10.61;55.06;99902.59;5188754;28;20064;-82
2022/03/17 07:24:44;;;;;;;63.55;36.45;;;;;;;10.57;55.57;99902.84;5191626;28;20046;-82
2022/03/17 07:27:43;;;;;;;61.08;35.55;;;;;;;10.73;54.11;99894.53;5194791;28;20152;-83
2022/03/17 07:30:34;;;;;;;71.22;36.10;;;;;;;10.78;54.89;99894.13;5188142;28;20057;-82
2022/03/17 07:33:24;;;;;;;59.97;35.85;;;;;;;11.14;53.19;99930.13;5198891;28;20069;-83
2022/03/17 07:36:14;;;;;;;59.30;35.42;;;;;;;11.21;53.47;99931.31;5189540;28;20060;-83
2022/03/17 07:39:04;;;;;;;59.88;35.63;;;;;;;10.96;53.85;99918.34;5185103;28;20192;-83
2022/03/17 07:41:55;;;;;;;65.70;36.97;;;;;;;11.32;53.15;99932.25;5164463;28;20050;-83
2022/03/17 07:44:54;;;;;;;59.90;36.58;;;;;;;10.89;54.25;99914.50;5165268;28;20054;-83
2022/03/17 07:48:05;;;;;;;59.55;36.20;;;;;;;10.77;54.96;99906.56;5183663;28;20057;-84
2022/03/17 07:50:55;;;;;;;59.10;36.15;;;;;;;10.81;55.51;99955.75;5178269;28;20049;-84
2022/03/17 07:53:47;;;;;;;57.88;34.78;;;;;;;10.95;55.06;99952.00;5193293;28;20046;-82
2022/03/17 07:56:37;;;;;;;60.67;35.20;;;;;;;11.07;54.13;99934.25;5185698;28;20077;-82
2022/03/17 07:59:28;;;;;;;55.88;34.85;;;;;;;11.32;53.57;99938.41;5193062;28;20073;-83
2022/03/17 08:02:20;;;;;;;60.78;36.63;;;;;;;11.02;53.95;99929.28;5184454;28;20092;-83
2022/03/17 08:05:13;;;;;;;61.55;36.88;;;;;;;11.27;53.73;99965.31;5194526;28;20068;-83
2022/03/17 08:08:04;;;;;;;59.40;35.05;;;;;;;11.22;53.56;99942.75;5192072;28;20088;-82
2022/03/17 08:10:57;;;;;;;57.10;36.13;;;;;;;11.11;53.55;99950.78;5194129;28;20574;-83
2022/03/17 08:13:47;;;;;;;62.67;37.88;;;;;;;11.38;53.53;99951.16;5173360;28;20105;-83
2022/03/17 08:16:39;;;;;;;59.90;36.45;;;;;;;11.13;54.15;99948.84;5192287;28;20877;-83
2022/03/17 08:19:31;;;;;;;58.78;34.20;;;;;;;11.28;53.67;99939.63;5192601;28;20471;-83
2022/03/17 08:22:21;;;;;;;56.80;35.67;;;;;;;11.43;53.06;99964.94;5177042;28;20052;-84
2022/03/17 08:25:12;;;;;;;60.47;36.90;;;;;;;11.22;54.36;99943.59;5185377;28;20136;-82
2022/03/17 08:28:03;;;;;;;61.22;35.83;;;;;;;11.78;53.34;99966.47;5174961;28;20566;-82
2022/03/17 08:30:53;;;;;;;62.00;36.83;;;;;;;11.34;53.81;99952.41;5182095;28;20046;-83
2022/03/17 08:33:43;;;;;;;69.10;38.90;;;;;;;11.16;54.66;99949.44;5181609;28;20056;-84
2022/03/17 08:36:34;;;;;;;65.75;36.67;;;;;;;11.20;54.50;99937.59;5179908;28;20505;-82
2022/03/17 08:39:24;;;;;;;60.25;37.30;;;;;;;11.48;53.75;99961.88;5171460;28;20050;-82
2022/03/17 08:42:15;;;;;;;65.95;37.65;;;;;;;11.54;54.21;99979.97;5194070;28;20050;-82
2022/03/17 08:51:25;;;;;;;67.45;36.53;;;;;;;11.81;53.30;99986.63;5174559;28;20046;-82
2022/03/17 08:54:16;;;;;;;61.08;37.60;;;;;;;11.74;53.33;99992.47;5190233;28;20505;-82
2022/03/17 08:57:07;;;;;;;60.25;36.78;;;;;;;11.79;53.34;99977.94;5181428;28;20515;-83
2022/03/17 08:59:58;;;;;;;57.08;36.90;;;;;;;11.96;52.93;99988.06;5177825;28;20049;-83
2022/03/17 09:02:49;;;;;;;66.25;36.95;;;;;;;11.61;53.19;99988.28;5182878;28;20073;-83
2022/03/17 09:05:39;;;;;;;64.88;37.38;;;;;;;11.70;52.88;99996.34;5178112;28;20086;-82
2022/03/17 09:08:30;;;;;;;64.22;38.17;;;;;;;11.95;52.25;100005.81;5154289;28;20085;-82
2022/03/17 09:11:20;;;;;;;62.58;37.88;;;;;;;12.03;52.83;100013.16;5169847;28;20072;-82
2022/03/17 09:14:09;;;;;;;64.53;37.95;;;;;;;11.79;52.83;99983.25;5183802;28;20143;-82
2022/03/17 09:17:00;;;;;;;62.75;36.22;;;;;;;12.16;52.11;99997.03;5184080;28;20512;-81
2022/03/17 09:19:50;;;;;;;58.50;36.08;;;;;;;12.23;51.75;99996.38;5183263;28;20050;-82
2022/03/17 09:22:40;;;;;;;59.53;36.25;;;;;;;11.95;53.05;99958.00;5184094;28;20053;-83
2022/03/17 09:25:33;;;;;;;65.25;36.97;;;;;;;12.46;51.40;100006.88;5190905;28;20085;-83
2022/03/17 09:28:26;;;;;;;63.65;37.22;;;;;;;12.19;52.54;100004.75;5179443;28;20145;-82
2022/03/17 09:31:16;;;;;;;61.17;36.10;;;;;;;12.25;51.84;99998.91;5181608;28;20052;-83
2022/03/17 09:34:06;;;;;;;65.85;37.60;;;;;;;12.55;50.51;99990.13;5188307;28;20057;-83
2022/03/17 09:36:56;;;;;;;63.20;37.85;;;;;;;12.51;51.31;99993.16;5183877;28;20180;-83
2022/03/17 09:39:47;;;;;;;61.83;37.35;;;;;;;12.22;52.52;99989.38;5191070;28;20061;-82
2022/03/17 09:42:38;;;;;;;63.47;36.85;;;;;;;12.51;51.51;100001.97;5194146;28;20479;-83
2022/03/17 09:45:30;;;;;;;67.70;39.13;;;;;;;12.53;51.48;100001.88;5194829;28;20077;-83
2022/03/17 09:48:25;;;;;;;62.33;37.65;;;;;;;12.36;52.36;100003.31;5197432;28;20046;-83
2022/03/17 09:51:17;;;;;;;66.95;38.58;;;;;;;12.75;51.24;99976.88;5189547;28;20062;-83
2022/03/17 09:54:07;;;;;;;63.05;37.53;;;;;;;12.50;52.19;99988.81;5195169;28;20065;-83
2022/03/17 09:56:58;;;;;;;59.65;37.72;;;;;;;12.54;52.48;99999.06;5197698;28;20073;-83
2022/03/17 09:59:53;;;;;;;63.45;38.45;;;;;;;12.65;51.08;99995.50;5192137;28;20054;-82
2022/03/17 10:02:43;;;;;;;66.55;38.67;;;;;;;12.87;51.71;99989.13;5195551;28;20460;-84
2022/03/17 10:05:34;;;;;;;64.00;37.30;;;;;;;12.88;51.36;100017.44;5180735;28;20096;-84
2022/03/17 10:08:25;;;;;;;63.95;38.55;;;;;;;12.99;51.98;100006.69;5191011;28;20050;-82
2022/03/17 10:11:18;;;;;;;63.33;38.28;;;;;;;13.05;51.27;100030.13;5197127;28;20058;-82
2022/03/17 10:14:09;;;;;;;65.33;38.17;;;;;;;12.81;52.17;100032.25;5195142;28;20047;-83
2022/03/17 10:16:59;;;;;;;61.85;37.17;;;;;;;12.97;51.98;100029.94;5196528;28;20284;-82
2022/03/17 10:19:49;;;;;;;62.53;36.20;;;;;;;13.25;49.83;100017.75;5196828;28;20080;-83
2022/03/17 10:22:59;;;;;;;66.53;38.30;;;;;;;13.12;50.80;100004.66;5197704;28;20053;-83
2022/03/17 10:25:55;;;;;;;65.13;39.72;;;;;;;13.36;50.37;100035.44;5202638;28;20480;-82
2022/03/17 10:28:46;;;;;;;61.95;37.53;;;;;;;13.09;51.07;100012.91;5196153;28;20073;-83
2022/03/17 10:31:54;;;;;;;67.80;37.38;;;;;;;13.25;50.78;100038.22;5176975;28;20097;-84
2022/03/17 10:34:47;;;;;;;70.30;37.63;;;;;;;13.48;50.52;100052.16;5182460;28;20046;-84
2022/03/17 10:37:38;;;;;;;62.72;37.13;;;;;;;13.37;50.12;100045.94;5190714;28;20069;-84
2022/03/17 10:40:31;;;;;;;61.00;37.42;;;;;;;13.36;51.17;100043.44;5170409;28;20688;-84
2022/03/17 10:43:23;;;;;;;59.58;37.33;;;;;;;13.03;51.32;100026.75;5172569;28;20049;-84
2022/03/17 10:46:16;;;;;;;67.10;40.13;;;;;;;13.24;51.26;100041.81;5186479;28;20168;-83
2022/03/17 10:49:07;;;;;;;64.18;37.67;;;;;;;13.35;50.97;100044.41;5174413;28;20057;-84
2022/03/17 10:51:57;;;;;;;63.97;41.03;;;;;;;13.37;51.13;100072.59;5172446;28;20686;-82
2022/03/17 10:54:56;;;;;;;63.65;38.90;;;;;;;13.24;51.13;100060.44;5182776;28;20058;-82
2022/03/17 10:57:47;;;;;;;66.68;38.33;;;;;;;12.74;54.13;100079.00;5187939;28;20069;-82
2022/03/17 11:00:46;;;;;;;67.03;38.78;;;;;;;12.65;52.59;100076.16;5187157;28;20116;-82
2022/03/17 11:03:38;;;;;;;62.95;38.45;;;;;;;11.92;54.57;100047.72;5178274;28;20053;-82
2022/03/17 11:06:29;;;;;;;66.60;39.25;;;;;;;13.20;53.14;100059.03;5186983;28;20050;-82
2022/03/17 11:09:22;;;;;;;62.35;38.63;;;;;;;13.51;53.14;100068.72;5188192;28;20054;-82
2022/03/17 11:12:17;;;;;;;62.67;37.88;;;;;;;13.53;51.72;100084.56;5187087;28;20133;-83
2022/03/17 11:15:08;;;;;;;70.05;42.30;;;;;;;13.64;52.04;100084.44;5174564;28;20586;-83
2022/03/17 11:18:05;;;;;;;74.00;39.85;;;;;;;13.14;52.12;100082.59;5181982;28;20155;-83
2022/03/17 11:21:21;;;;;;;67.72;40.33;;;;;;;12.80;54.04;100089.97;5187948;28;20096;-83
2022/03/17 11:24:22;;;;;;;73.53;41.53;;;;;;;13.24;52.72;100089.75;5172711;28;20054;-82
2022/03/17 11:27:14;;;;;;;64.82;39.60;;;;;;;13.15;52.41;100078.94;5183847;28;20061;-82
2022/03/17 11:30:13;;;;;;;74.35;40.35;;;;;;;13.05;54.12;100082.53;5187667;28;20056;-82
2022/03/17 11:33:26;;;;;;;67.72;39.70;;;;;;;13.19;54.95;100084.00;5187182;28;20520;-82
2022/03/17 11:36:21;;;;;;;61.55;37.60;;;;;;;12.76;55.20;100098.34;5192194;28;20056;-83
2022/03/17 11:39:18;;;;;;;61.30;36.72;;;;;;;11.89;56.99;100078.09;5175257;28;20060;-82
2022/03/17 11:42:38;;;;;;;61.25;37.47;;;;;;;12.76;56.81;100104.50;5170235;28;20054;-82
2022/03/17 11:45:28;;;;;;;67.10;39.15;;;;;;;12.25;57.48;100104.41;5186632;28;20061;-82
2022/03/17 11:48:19;;;;;;;62.28;38.30;;;;;;;12.53;56.54;100090.50;5180294;28;20104;-82
2022/03/17 11:51:15;;;;;;;;;;;;;;;13.03;55.42;100114.59;5186520;28;20080;-82
2022/03/17 11:54:05;;;;;;;67.63;38.72;;;;;;;12.63;56.84;100070.13;5181596;28;20299;-82
2022/03/17 11:57:00;;;;;;;66.03;39.30;;;;;;;13.33;56.73;100102.31;5177866;28;20061;-82
2022/03/17 11:59:55;;;;;;;64.25;39.08;;;;;;;12.59;58.34;100116.59;5182302;28;20054;-82
2022/03/17 12:02:45;;;;;;;64.03;37.67;;;;;;;12.31;58.83;100091.44;5185650;28;20050;-82
2022/03/17 12:05:39;;;;;;;67.70;38.63;;;;;;;12.34;58.59;100109.81;5185004;28;20050;-83
2022/03/17 12:09:04;;;;;;;64.43;39.55;;;;;;;13.17;55.13;100092.94;5181308;28;20056;-82
2022/03/17 12:11:55;;;;;;;62.25;38.92;;;;;;;12.69;56.43;100109.50;5183925;28;20128;-82
2022/03/17 12:14:52;;;;;;;62.33;38.70;;;;;;;12.48;56.47;100121.09;5184419;28;20060;-82
2022/03/17 12:17:42;;;;;;;61.40;38.28;;;;;;;12.94;57.16;100104.75;5169577;28;20129;-82
2022/03/17 12:20:45;;;;;;;68.65;37.42;;;;;;;12.03;57.76;100106.19;5186198;28;20053;-82
2022/03/17 12:23:49;;;;;;;65.55;37.70;;;;;;;13.31;55.85;100126.41;5185382;28;20042;-82
2022/03/17 12:26:40;;;;;;;57.85;36.58;;;;;;;13.30;54.86;100115.88;5185758;28;20054;-82
2022/03/17 12:29:31;;;;;;;61.75;37.53;;;;;;;13.61;53.68;100104.22;5181539;28;20096;-82
2022/03/17 12:32:23;;;;;;;55.67;35.35;;;;;;;13.21;54.79;100137.94;5185074;28;20112;-82
2022/03/17 12:35:14;;;;;;;63.70;37.47;;;;;;;13.47;55.18;100125.91;5183949;28;20130;-83
2022/03/17 12:38:06;;;;;;;57.70;36.13;;;;;;;13.29;54.10;100132.84;5187601;28;20057;-83
2022/03/17 12:40:58;;;;;;;60.70;36.17;;;;;;;12.43;56.38;100140.97;5185524;28;20637;-82
2022/03/17 12:43:50;;;;;;;61.53;36.58;;;;;;;12.81;55.87;100146.69;5188454;28;20053;-83
2022/03/17 12:46:40;;;;;;;58.95;37.88;;;;;;;12.43;57.20;100145.44;5169538;28;20420;-82
2022/03/17 12:49:33;;;;;;;66.25;39.53;;;;;;;12.63;57.14;100151.75;5188121;28;20065;-83
2022/03/17 12:52:26;;;;;;;63.55;38.30;;;;;;;12.31;58.36;100149.09;5184017;28;20526;-81
2022/03/17 12:55:19;;;;;;;68.07;39.10;;;;;;;12.57;56.71;100147.78;5182953;28;20060;-83
2022/03/17 12:58:14;;;;;;;69.13;38.45;;;;;;;13.04;56.01;100144.72;5179374;28;20056;-82
2022/03/17 13:01:05;;;;;;;67.03;38.22;;;;;;;13.16;55.90;100141.03;5183240;28;20057;-82
2022/03/17 13:03:55;;;;;;;70.05;39.38;;;;;;;13.38;53.96;100159.53;5180118;28;20046;-82
2022/03/17 13:06:54;;;;;;;64.75;38.15;;;;;;;12.34;57.33;100163.00;5185168;28;20049;-82
2022/03/17 13:09:46;;;;;;;63.38;39.72;;;;;;;13.00;56.01;100154.81;5173379;28;20079;-82
2022/03/17 13:15:45;;;;;;;60.47;36.97;;;;;;;12.27;56.38;100161.81;5182955;28;20053;-82
2022/03/17 13:18:43;;;;;;;63.35;38.55;;;;;;;12.08;56.16;100167.78;5185332;28;20104;-82
2022/03/17 13:21:34;;;;;;;62.65;39.72;;;;;;;12.11;56.17;100156.91;5184030;28;20057;-83
2022/03/17 13:24:24;;;;;;;59.55;36.40;;;;;;;12.87;54.16;100164.81;5159053;28;20061;-82